sensor_id;sensor_type;location;lat;lon;timestamp;temperature;humidity
45207;DHT22;30950;53.086;21.576;2023-06-05T00:00:22;10.30;99.90
45207;DHT22;30950;53.086;21.576;2023-06-05T00:03:10;10.20;99.90
45207;DHT22;30950;53.086;21.576;2023-06-05T00:05:38;10.10;99.90
45207;DHT22;30950;53.086;21.576;2023-06-05T00:08:05;10.10;99.90
45207;DHT22;30950;53.086;21.576;2023-06-05T00:10:32;10.00;99.90
45207;DHT22;30950;53.086;21.576;2023-06-05T00:13:00;10.00;99.90
45207;DHT22;30950;53.086;21.576;2023-06-05T00:15:27;9.90;99.90
45207;DHT22;30950;53.086;21.576;2023-06-05T00:17:54;9.90;99.90
45207;DHT22;30950;53.086;21.576;2023-06-05T00:20:22;9.90;99.90
45207;DHT22;30950;53.086;21.576;2023-06-05T00:22:49;9.80;99.90
45207;DHT22;30950;53.086;21.576;2023-06-05T00:25:16;9.80;99.90
45207;DHT22;30950;53.086;21.576;2023-06-05T00:27:44;9.80;99.90
45207;DHT22;30950;53.086;21.576;2023-06-05T00:30:12;9.80;99.90
45207;DHT22;30950;53.086;21.576;2023-06-05T00:32:40;9.70;99.90
45207;DHT22;30950;53.086;21.576;2023-06-05T00:35:08;9.70;99.90
45207;DHT22;30950;53.086;21.576;2023-06-05T00:37:36;9.70;99.90
45207;DHT22;30950;53.086;21.576;2023-06-05T00:40:06;9.60;99.90
45207;DHT22;30950;53.086;21.576;2023-06-05T00:42:34;9.60;99.90
45207;DHT22;30950;53.086;21.576;2023-06-05T00:45:01;9.60;99.90
45207;DHT22;30950;53.086;21.576;2023-06-05T00:47:29;9.60;99.90
45207;DHT22;30950;53.086;21.576;2023-06-05T00:49:56;9.60;99.90
45207;DHT22;30950;53.086;21.576;2023-06-05T00:52:25;9.50;99.90
45207;DHT22;30950;53.086;21.576;2023-06-05T00:54:53;9.50;99.90
45207;DHT22;30950;53.086;21.576;2023-06-05T00:57:21;9.40;99.90
45207;DHT22;30950;53.086;21.576;2023-06-05T00:59:51;9.30;99.90
45207;DHT22;30950;53.086;21.576;2023-06-05T01:02:20;9.30;99.90
45207;DHT22;30950;53.086;21.576;2023-06-05T01:04:48;9.30;99.90
45207;DHT22;30950;53.086;21.576;2023-06-05T01:07:16;9.30;99.90
45207;DHT22;30950;53.086;21.576;2023-06-05T01:09:44;9.20;99.90
45207;DHT22;30950;53.086;21.576;2023-06-05T01:12:26;9.10;99.90
45207;DHT22;30950;53.086;21.576;2023-06-05T01:14:56;9.10;99.90
45207;DHT22;30950;53.086;21.576;2023-06-05T01:17:28;9.10;99.90
45207;DHT22;30950;53.086;21.576;2023-06-05T01:19:56;9.00;99.90
45207;DHT22;30950;53.086;21.576;2023-06-05T01:22:26;9.00;99.90
45207;DHT22;30950;53.086;21.576;2023-06-05T01:24:53;8.90;99.90
45207;DHT22;30950;53.086;21.576;2023-06-05T01:27:37;8.80;99.90
45207;DHT22;30950;53.086;21.576;2023-06-05T01:33:02;8.70;99.90
45207;DHT22;30950;53.086;21.576;2023-06-05T01:35:33;8.70;99.90
45207;DHT22;30950;53.086;21.576;2023-06-05T01:38:02;8.60;99.90
45207;DHT22;30950;53.086;21.576;2023-06-05T01:40:34;8.50;99.90
45207;DHT22;30950;53.086;21.576;2023-06-05T01:43:03;8.60;99.90
45207;DHT22;30950;53.086;21.576;2023-06-05T01:45:32;8.40;99.90
45207;DHT22;30950;53.086;21.576;2023-06-05T01:48:00;8.40;99.90
45207;DHT22;30950;53.086;21.576;2023-06-05T01:50:33;8.30;99.90
45207;DHT22;30950;53.086;21.576;2023-06-05T01:53:01;8.20;99.90
45207;DHT22;30950;53.086;21.576;2023-06-05T01:55:29;8.20;99.90
45207;DHT22;30950;53.086;21.576;2023-06-05T01:57:56;8.10;99.90
45207;DHT22;30950;53.086;21.576;2023-06-05T02:00:23;8.00;99.90
45207;DHT22;30950;53.086;21.576;2023-06-05T02:02:51;8.00;99.90
45207;DHT22;30950;53.086;21.576;2023-06-05T02:05:18;7.90;99.90
45207;DHT22;30950;53.086;21.576;2023-06-05T02:07:49;7.80;99.90
45207;DHT22;30950;53.086;21.576;2023-06-05T02:10:21;7.80;99.90
45207;DHT22;30950;53.086;21.576;2023-06-05T02:12:49;7.70;99.90
45207;DHT22;30950;53.086;21.576;2023-06-05T02:15:16;7.70;99.90
45207;DHT22;30950;53.086;21.576;2023-06-05T02:17:45;7.60;99.90
45207;DHT22;30950;53.086;21.576;2023-06-05T02:20:17;7.60;99.90
45207;DHT22;30950;53.086;21.576;2023-06-05T02:22:45;7.60;99.90
45207;DHT22;30950;53.086;21.576;2023-06-05T02:25:12;7.50;99.90
45207;DHT22;30950;53.086;21.576;2023-06-05T02:27:39;7.50;99.90
45207;DHT22;30950;53.086;21.576;2023-06-05T02:30:09;7.40;99.90
45207;DHT22;30950;53.086;21.576;2023-06-05T02:32:36;7.40;99.90
45207;DHT22;30950;53.086;21.576;2023-06-05T02:35:08;7.40;99.90
45207;DHT22;30950;53.086;21.576;2023-06-05T02:37:37;7.30;99.90
45207;DHT22;30950;53.086;21.576;2023-06-05T02:40:10;7.20;99.90
45207;DHT22;30950;53.086;21.576;2023-06-05T02:42:39;7.20;99.90
45207;DHT22;30950;53.086;21.576;2023-06-05T02:45:08;7.20;99.90
45207;DHT22;30950;53.086;21.576;2023-06-05T02:47:36;7.10;99.90
45207;DHT22;30950;53.086;21.576;2023-06-05T02:50:05;7.10;99.90
45207;DHT22;30950;53.086;21.576;2023-06-05T02:52:36;7.10;99.90
45207;DHT22;30950;53.086;21.576;2023-06-05T02:55:13;7.10;99.90
45207;DHT22;30950;53.086;21.576;2023-06-05T02:57:42;7.10;99.90
45207;DHT22;30950;53.086;21.576;2023-06-05T03:00:14;7.10;99.90
45207;DHT22;30950;53.086;21.576;2023-06-05T03:02:49;7.10;99.90
45207;DHT22;30950;53.086;21.576;2023-06-05T03:05:20;7.10;99.90
45207;DHT22;30950;53.086;21.576;2023-06-05T03:07:59;7.10;99.90
45207;DHT22;30950;53.086;21.576;2023-06-05T03:10:29;7.20;99.90
45207;DHT22;30950;53.086;21.576;2023-06-05T03:12:58;7.20;99.90
45207;DHT22;30950;53.086;21.576;2023-06-05T03:15:29;7.30;99.90
45207;DHT22;30950;53.086;21.576;2023-06-05T03:17:56;7.30;99.90
45207;DHT22;30950;53.086;21.576;2023-06-05T03:20:25;7.40;99.90
45207;DHT22;30950;53.086;21.576;2023-06-05T03:22:53;7.40;99.90
45207;DHT22;30950;53.086;21.576;2023-06-05T03:25:21;7.40;99.90
45207;DHT22;30950;53.086;21.576;2023-06-05T03:27:52;7.50;99.90
45207;DHT22;30950;53.086;21.576;2023-06-05T03:30:21;7.60;99.90
45207;DHT22;30950;53.086;21.576;2023-06-05T03:32:52;7.60;99.90
45207;DHT22;30950;53.086;21.576;2023-06-05T03:35:20;7.70;99.90
45207;DHT22;30950;53.086;21.576;2023-06-05T03:37:48;7.80;99.90
45207;DHT22;30950;53.086;21.576;2023-06-05T03:40:15;7.80;99.90
45207;DHT22;30950;53.086;21.576;2023-06-05T03:42:43;7.90;99.90
45207;DHT22;30950;53.086;21.576;2023-06-05T03:45:10;8.00;99.90
45207;DHT22;30950;53.086;21.576;2023-06-05T03:47:39;8.10;99.90
45207;DHT22;30950;53.086;21.576;2023-06-05T03:50:09;8.20;99.90
45207;DHT22;30950;53.086;21.576;2023-06-05T03:52:41;8.20;99.90
45207;DHT22;30950;53.086;21.576;2023-06-05T03:55:08;8.30;99.90
45207;DHT22;30950;53.086;21.576;2023-06-05T03:57:38;8.40;99.90
45207;DHT22;30950;53.086;21.576;2023-06-05T04:00:07;8.50;99.90
45207;DHT22;30950;53.086;21.576;2023-06-05T04:02:40;8.60;99.90
45207;DHT22;30950;53.086;21.576;2023-06-05T04:05:13;8.70;99.90
45207;DHT22;30950;53.086;21.576;2023-06-05T04:07:41;8.80;99.90
45207;DHT22;30950;53.086;21.576;2023-06-05T04:10:09;8.90;99.90
45207;DHT22;30950;53.086;21.576;2023-06-05T04:12:37;9.00;99.90
45207;DHT22;30950;53.086;21.576;2023-06-05T04:15:06;9.20;99.90
45207;DHT22;30950;53.086;21.576;2023-06-05T04:17:34;9.30;99.90
45207;DHT22;30950;53.086;21.576;2023-06-05T04:20:02;9.40;99.90
45207;DHT22;30950;53.086;21.576;2023-06-05T04:22:31;9.50;99.90
45207;DHT22;30950;53.086;21.576;2023-06-05T04:24:58;9.70;99.90
45207;DHT22;30950;53.086;21.576;2023-06-05T04:27:25;9.80;99.90
45207;DHT22;30950;53.086;21.576;2023-06-05T04:29:55;9.90;99.90
45207;DHT22;30950;53.086;21.576;2023-06-05T04:32:24;10.10;99.90
45207;DHT22;30950;53.086;21.576;2023-06-05T04:34:51;10.20;99.90
45207;DHT22;30950;53.086;21.576;2023-06-05T04:37:19;10.40;99.90
45207;DHT22;30950;53.086;21.576;2023-06-05T04:39:47;10.50;99.90
45207;DHT22;30950;53.086;21.576;2023-06-05T04:42:15;10.60;99.90
45207;DHT22;30950;53.086;21.576;2023-06-05T04:44:57;10.80;99.90
45207;DHT22;30950;53.086;21.576;2023-06-05T04:47:27;10.90;99.90
45207;DHT22;30950;53.086;21.576;2023-06-05T04:49:57;11.10;99.90
45207;DHT22;30950;53.086;21.576;2023-06-05T04:52:25;11.20;99.90
45207;DHT22;30950;53.086;21.576;2023-06-05T04:54:53;11.40;99.90
45207;DHT22;30950;53.086;21.576;2023-06-05T04:57:21;11.50;99.90
45207;DHT22;30950;53.086;21.576;2023-06-05T04:59:51;11.60;99.90
45207;DHT22;30950;53.086;21.576;2023-06-05T05:02:20;11.70;99.90
45207;DHT22;30950;53.086;21.576;2023-06-05T05:04:47;11.80;99.90
45207;DHT22;30950;53.086;21.576;2023-06-05T05:07:15;12.00;99.90
45207;DHT22;30950;53.086;21.576;2023-06-05T05:09:44;12.10;99.90
45207;DHT22;30950;53.086;21.576;2023-06-05T05:12:13;12.20;99.90
45207;DHT22;30950;53.086;21.576;2023-06-05T05:14:41;12.30;99.90
45207;DHT22;30950;53.086;21.576;2023-06-05T05:17:09;12.40;99.90
45207;DHT22;30950;53.086;21.576;2023-06-05T05:19:36;12.50;99.90
45207;DHT22;30950;53.086;21.576;2023-06-05T05:22:08;12.60;99.90
45207;DHT22;30950;53.086;21.576;2023-06-05T05:24:35;12.70;99.90
45207;DHT22;30950;53.086;21.576;2023-06-05T05:27:03;12.90;99.90
45207;DHT22;30950;53.086;21.576;2023-06-05T05:29:30;13.00;99.90
45207;DHT22;30950;53.086;21.576;2023-06-05T05:32:01;13.20;99.90
45207;DHT22;30950;53.086;21.576;2023-06-05T05:34:29;13.30;99.90
45207;DHT22;30950;53.086;21.576;2023-06-05T05:36:57;13.50;99.90
45207;DHT22;30950;53.086;21.576;2023-06-05T05:39:25;13.60;99.90
45207;DHT22;30950;53.086;21.576;2023-06-05T05:41:53;13.70;99.90
45207;DHT22;30950;53.086;21.576;2023-06-05T05:44:20;13.90;99.90
45207;DHT22;30950;53.086;21.576;2023-06-05T05:46:47;14.00;99.30
45207;DHT22;30950;53.086;21.576;2023-06-05T05:49:14;14.20;98.20
45207;DHT22;30950;53.086;21.576;2023-06-05T05:51:42;14.40;97.60
45207;DHT22;30950;53.086;21.576;2023-06-05T05:54:09;14.60;96.50
45207;DHT22;30950;53.086;21.576;2023-06-05T05:56:36;14.80;95.40
45207;DHT22;30950;53.086;21.576;2023-06-05T05:59:04;15.00;94.50
45207;DHT22;30950;53.086;21.576;2023-06-05T06:01:31;15.10;93.10
45207;DHT22;30950;53.086;21.576;2023-06-05T06:03:59;15.30;92.20
45207;DHT22;30950;53.086;21.576;2023-06-05T06:06:26;15.50;90.90
45207;DHT22;30950;53.086;21.576;2023-06-05T06:08:54;15.70;90.50
45207;DHT22;30950;53.086;21.576;2023-06-05T06:11:22;15.80;89.60
45207;DHT22;30950;53.086;21.576;2023-06-05T06:13:49;16.00;88.30
45207;DHT22;30950;53.086;21.576;2023-06-05T06:16:16;16.20;84.60
45207;DHT22;30950;53.086;21.576;2023-06-05T06:18:43;16.30;82.60
45207;DHT22;30950;53.086;21.576;2023-06-05T06:21:12;16.50;80.00
45207;DHT22;30950;53.086;21.576;2023-06-05T06:23:39;16.60;77.40
45207;DHT22;30950;53.086;21.576;2023-06-05T06:26:07;16.70;76.30
45207;DHT22;30950;53.086;21.576;2023-06-05T06:28:34;16.80;75.90
45207;DHT22;30950;53.086;21.576;2023-06-05T06:31:02;16.90;75.80
45207;DHT22;30950;53.086;21.576;2023-06-05T06:33:31;17.00;74.80
45207;DHT22;30950;53.086;21.576;2023-06-05T06:35:58;17.10;74.10
45207;DHT22;30950;53.086;21.576;2023-06-05T06:38:27;17.20;73.90
45207;DHT22;30950;53.086;21.576;2023-06-05T06:40:58;17.30;72.70
45207;DHT22;30950;53.086;21.576;2023-06-05T06:43:25;17.50;70.80
45207;DHT22;30950;53.086;21.576;2023-06-05T06:46:04;17.60;70.10
45207;DHT22;30950;53.086;21.576;2023-06-05T06:48:32;17.70;69.90
45207;DHT22;30950;53.086;21.576;2023-06-05T06:51:00;17.80;69.60
45207;DHT22;30950;53.086;21.576;2023-06-05T06:53:27;17.90;69.10
45207;DHT22;30950;53.086;21.576;2023-06-05T06:55:55;17.90;69.20
45207;DHT22;30950;53.086;21.576;2023-06-05T06:58:22;17.90;69.20
45207;DHT22;30950;53.086;21.576;2023-06-05T07:00:50;18.00;68.50
45207;DHT22;30950;53.086;21.576;2023-06-05T07:03:18;18.10;68.10
45207;DHT22;30950;53.086;21.576;2023-06-05T07:05:45;18.20;67.40
45207;DHT22;30950;53.086;21.576;2023-06-05T07:08:13;18.30;66.00
45207;DHT22;30950;53.086;21.576;2023-06-05T07:10:40;18.30;65.30
45207;DHT22;30950;53.086;21.576;2023-06-05T07:13:09;18.40;64.70
45207;DHT22;30950;53.086;21.576;2023-06-05T07:15:37;18.50;64.20
45207;DHT22;30950;53.086;21.576;2023-06-05T07:18:04;18.50;63.80
45207;DHT22;30950;53.086;21.576;2023-06-05T07:20:32;18.70;62.90
45207;DHT22;30950;53.086;21.576;2023-06-05T07:22:59;18.80;62.20
45207;DHT22;30950;53.086;21.576;2023-06-05T07:25:27;18.90;60.00
45207;DHT22;30950;53.086;21.576;2023-06-05T07:27:54;19.00;59.40
45207;DHT22;30950;53.086;21.576;2023-06-05T07:30:22;19.00;58.80
45207;DHT22;30950;53.086;21.576;2023-06-05T07:32:49;19.10;59.30
45207;DHT22;30950;53.086;21.576;2023-06-05T07:35:17;19.20;57.30
45207;DHT22;30950;53.086;21.576;2023-06-05T07:37:44;19.20;58.00
45207;DHT22;30950;53.086;21.576;2023-06-05T07:40:12;19.30;57.10
45207;DHT22;30950;53.086;21.576;2023-06-05T07:42:39;19.40;56.50
45207;DHT22;30950;53.086;21.576;2023-06-05T07:45:07;19.40;55.60
45207;DHT22;30950;53.086;21.576;2023-06-05T07:47:35;19.50;55.40
45207;DHT22;30950;53.086;21.576;2023-06-05T07:50:03;19.60;55.50
45207;DHT22;30950;53.086;21.576;2023-06-05T07:52:35;19.60;55.10
45207;DHT22;30950;53.086;21.576;2023-06-05T07:55:02;19.70;54.80
45207;DHT22;30950;53.086;21.576;2023-06-05T07:57:31;19.80;54.70
45207;DHT22;30950;53.086;21.576;2023-06-05T07:59:58;19.90;54.00
45207;DHT22;30950;53.086;21.576;2023-06-05T08:02:25;20.00;54.20
45207;DHT22;30950;53.086;21.576;2023-06-05T08:04:53;20.00;53.90
45207;DHT22;30950;53.086;21.576;2023-06-05T08:07:20;20.00;54.10
45207;DHT22;30950;53.086;21.576;2023-06-05T08:09:48;20.10;53.30
45207;DHT22;30950;53.086;21.576;2023-06-05T08:12:15;20.20;52.70
45207;DHT22;30950;53.086;21.576;2023-06-05T08:14:42;20.20;52.20
45207;DHT22;30950;53.086;21.576;2023-06-05T08:17:09;20.30;52.40
45207;DHT22;30950;53.086;21.576;2023-06-05T08:19:36;20.40;51.10
45207;DHT22;30950;53.086;21.576;2023-06-05T08:22:04;20.50;51.80
45207;DHT22;30950;53.086;21.576;2023-06-05T08:24:32;20.60;51.70
45207;DHT22;30950;53.086;21.576;2023-06-05T08:26:59;20.60;51.60
45207;DHT22;30950;53.086;21.576;2023-06-05T08:29:28;20.70;51.00
45207;DHT22;30950;53.086;21.576;2023-06-05T08:31:58;20.70;50.70
45207;DHT22;30950;53.086;21.576;2023-06-05T08:34:25;20.80;50.60
45207;DHT22;30950;53.086;21.576;2023-06-05T08:36:53;20.90;50.60
45207;DHT22;30950;53.086;21.576;2023-06-05T08:39:20;20.90;50.70
45207;DHT22;30950;53.086;21.576;2023-06-05T08:41:50;20.90;49.40
45207;DHT22;30950;53.086;21.576;2023-06-05T08:44:19;21.00;49.60
45207;DHT22;30950;53.086;21.576;2023-06-05T08:46:47;21.00;49.80
45207;DHT22;30950;53.086;21.576;2023-06-05T08:49:16;21.00;49.70
45207;DHT22;30950;53.086;21.576;2023-06-05T08:51:44;21.10;49.80
45207;DHT22;30950;53.086;21.576;2023-06-05T08:54:12;21.20;49.50
45207;DHT22;30950;53.086;21.576;2023-06-05T08:56:42;21.20;49.40
45207;DHT22;30950;53.086;21.576;2023-06-05T08:59:11;21.30;49.10
45207;DHT22;30950;53.086;21.576;2023-06-05T09:01:42;21.40;48.90
45207;DHT22;30950;53.086;21.576;2023-06-05T09:04:11;21.50;49.20
45207;DHT22;30950;53.086;21.576;2023-06-05T09:06:39;21.60;48.50
45207;DHT22;30950;53.086;21.576;2023-06-05T09:09:07;21.60;48.10
45207;DHT22;30950;53.086;21.576;2023-06-05T09:11:34;21.70;47.70
45207;DHT22;30950;53.086;21.576;2023-06-05T09:14:03;21.70;47.70
45207;DHT22;30950;53.086;21.576;2023-06-05T09:16:42;21.70;47.60
45207;DHT22;30950;53.086;21.576;2023-06-05T09:19:11;21.80;47.60
45207;DHT22;30950;53.086;21.576;2023-06-05T09:21:38;21.80;47.60
45207;DHT22;30950;53.086;21.576;2023-06-05T09:24:11;21.90;47.70
45207;DHT22;30950;53.086;21.576;2023-06-05T09:29:30;22.10;47.80
45207;DHT22;30950;53.086;21.576;2023-06-05T09:32:02;22.20;47.20
45207;DHT22;30950;53.086;21.576;2023-06-05T09:34:34;22.30;47.30
45207;DHT22;30950;53.086;21.576;2023-06-05T09:37:07;22.30;46.60
45207;DHT22;30950;53.086;21.576;2023-06-05T09:39:37;22.40;46.70
45207;DHT22;30950;53.086;21.576;2023-06-05T09:42:05;22.50;46.70
45207;DHT22;30950;53.086;21.576;2023-06-05T09:44:33;22.50;46.20
45207;DHT22;30950;53.086;21.576;2023-06-05T09:47:03;22.60;46.10
45207;DHT22;30950;53.086;21.576;2023-06-05T09:52:12;22.70;45.60
45207;DHT22;30950;53.086;21.576;2023-06-05T09:54:42;22.70;45.60
45207;DHT22;30950;53.086;21.576;2023-06-05T09:57:15;22.70;45.60
45207;DHT22;30950;53.086;21.576;2023-06-05T09:59:53;22.80;46.20
45207;DHT22;30950;53.086;21.576;2023-06-05T10:02:27;22.90;46.10
45207;DHT22;30950;53.086;21.576;2023-06-05T10:05:03;23.00;44.50
45207;DHT22;30950;53.086;21.576;2023-06-05T10:07:31;23.10;44.50
45207;DHT22;30950;53.086;21.576;2023-06-05T10:10:08;23.10;44.40
45207;DHT22;30950;53.086;21.576;2023-06-05T10:12:36;23.20;44.60
45207;DHT22;30950;53.086;21.576;2023-06-05T10:15:06;23.20;43.80
45207;DHT22;30950;53.086;21.576;2023-06-05T10:17:35;23.10;43.70
45207;DHT22;30950;53.086;21.576;2023-06-05T10:20:06;23.10;43.60
45207;DHT22;30950;53.086;21.576;2023-06-05T10:22:35;23.10;43.60
45207;DHT22;30950;53.086;21.576;2023-06-05T10:25:06;23.20;43.80
45207;DHT22;30950;53.086;21.576;2023-06-05T10:30:39;24.00;43.80
45207;DHT22;30950;53.086;21.576;2023-06-05T10:38:26;25.80;44.60
45207;DHT22;30950;53.086;21.576;2023-06-05T10:40:56;26.50;43.20
45207;DHT22;30950;53.086;21.576;2023-06-05T10:43:35;27.00;41.70
45207;DHT22;30950;53.086;21.576;2023-06-05T10:46:35;27.50;41.30
45207;DHT22;30950;53.086;21.576;2023-06-05T10:49:13;27.60;40.30
45207;DHT22;30950;53.086;21.576;2023-06-05T10:51:46;27.50;40.40
45207;DHT22;30950;53.086;21.576;2023-06-05T10:57:05;27.10;39.50
45207;DHT22;30950;53.086;21.576;2023-06-05T10:59:38;26.90;40.00
45207;DHT22;30950;53.086;21.576;2023-06-05T11:07:21;26.30;39.30
45207;DHT22;30950;53.086;21.576;2023-06-05T11:15:06;25.70;39.20
45207;DHT22;30950;53.086;21.576;2023-06-05T11:17:39;25.50;39.40
45207;DHT22;30950;53.086;21.576;2023-06-05T11:25:28;25.20;39.50
45207;DHT22;30950;53.086;21.576;2023-06-05T11:28:03;25.10;39.80
45207;DHT22;30950;53.086;21.576;2023-06-05T11:30:38;25.00;39.80
45207;DHT22;30950;53.086;21.576;2023-06-05T11:33:10;25.00;39.80
45207;DHT22;30950;53.086;21.576;2023-06-05T11:35:43;24.90;40.00
45207;DHT22;30950;53.086;21.576;2023-06-05T11:38:16;24.90;40.50
45207;DHT22;30950;53.086;21.576;2023-06-05T11:40:48;25.00;40.00
45207;DHT22;30950;53.086;21.576;2023-06-05T11:43:16;24.90;39.60
45207;DHT22;30950;53.086;21.576;2023-06-05T11:45:57;24.70;39.70
45207;DHT22;30950;53.086;21.576;2023-06-05T11:48:25;24.80;40.50
45207;DHT22;30950;53.086;21.576;2023-06-05T11:51:03;24.90;40.90
45207;DHT22;30950;53.086;21.576;2023-06-05T11:53:32;25.00;41.10
45207;DHT22;30950;53.086;21.576;2023-06-05T11:56:00;25.20;41.00
45207;DHT22;30950;53.086;21.576;2023-06-05T11:58:32;25.30;39.30
45207;DHT22;30950;53.086;21.576;2023-06-05T12:01:16;25.30;39.50
45207;DHT22;30950;53.086;21.576;2023-06-05T12:04:04;25.10;39.50
45207;DHT22;30950;53.086;21.576;2023-06-05T12:06:32;25.00;39.60
45207;DHT22;30950;53.086;21.576;2023-06-05T12:09:10;24.90;39.90
45207;DHT22;30950;53.086;21.576;2023-06-05T12:11:38;25.00;39.70
45207;DHT22;30950;53.086;21.576;2023-06-05T12:14:06;25.10;39.60
45207;DHT22;30950;53.086;21.576;2023-06-05T12:16:38;25.20;39.30
45207;DHT22;30950;53.086;21.576;2023-06-05T12:19:12;25.30;39.10
45207;DHT22;30950;53.086;21.576;2023-06-05T12:21:46;25.30;39.10
45207;DHT22;30950;53.086;21.576;2023-06-05T12:24:16;25.40;38.90
45207;DHT22;30950;53.086;21.576;2023-06-05T12:29:24;25.70;39.00
45207;DHT22;30950;53.086;21.576;2023-06-05T12:31:52;25.90;39.00
45207;DHT22;30950;53.086;21.576;2023-06-05T12:34:46;26.30;39.40
45207;DHT22;30950;53.086;21.576;2023-06-05T12:37:30;27.00;39.00
45207;DHT22;30950;53.086;21.576;2023-06-05T12:40:01;27.70;39.10
45207;DHT22;30950;53.086;21.576;2023-06-05T12:42:34;28.30;38.10
45207;DHT22;30950;53.086;21.576;2023-06-05T12:45:05;28.80;37.70
45207;DHT22;30950;53.086;21.576;2023-06-05T12:47:34;29.30;37.00
45207;DHT22;30950;53.086;21.576;2023-06-05T12:50:03;29.70;36.90
45207;DHT22;30950;53.086;21.576;2023-06-05T12:52:31;30.20;36.30
45207;DHT22;30950;53.086;21.576;2023-06-05T12:55:00;30.70;36.50
45207;DHT22;30950;53.086;21.576;2023-06-05T12:57:27;31.00;35.60
45207;DHT22;30950;53.086;21.576;2023-06-05T12:59:55;31.50;35.50
45207;DHT22;30950;53.086;21.576;2023-06-05T13:02:23;31.90;34.50
45207;DHT22;30950;53.086;21.576;2023-06-05T13:04:51;32.30;34.50
45207;DHT22;30950;53.086;21.576;2023-06-05T13:07:18;32.60;34.20
45207;DHT22;30950;53.086;21.576;2023-06-05T13:09:46;32.80;34.10
45207;DHT22;30950;53.086;21.576;2023-06-05T13:12:13;32.80;33.30
45207;DHT22;30950;53.086;21.576;2023-06-05T13:14:41;32.80;33.40
45207;DHT22;30950;53.086;21.576;2023-06-05T13:17:08;32.80;33.70
45207;DHT22;30950;53.086;21.576;2023-06-05T13:19:35;32.60;32.90
45207;DHT22;30950;53.086;21.576;2023-06-05T13:22:02;32.80;33.40
45207;DHT22;30950;53.086;21.576;2023-06-05T13:24:31;32.80;32.60
45207;DHT22;30950;53.086;21.576;2023-06-05T13:26:58;32.80;33.00
45207;DHT22;30950;53.086;21.576;2023-06-05T13:29:25;33.20;32.70
45207;DHT22;30950;53.086;21.576;2023-06-05T13:31:53;33.40;32.40
45207;DHT22;30950;53.086;21.576;2023-06-05T13:34:20;33.50;32.40
45207;DHT22;30950;53.086;21.576;2023-06-05T13:36:47;33.70;32.30
45207;DHT22;30950;53.086;21.576;2023-06-05T13:39:16;33.60;31.60
45207;DHT22;30950;53.086;21.576;2023-06-05T13:41:44;33.60;31.70
45207;DHT22;30950;53.086;21.576;2023-06-05T13:44:11;33.80;32.20
45207;DHT22;30950;53.086;21.576;2023-06-05T13:46:38;34.00;32.20
45207;DHT22;30950;53.086;21.576;2023-06-05T13:49:08;34.10;31.70
45207;DHT22;30950;53.086;21.576;2023-06-05T13:51:35;34.20;31.80
45207;DHT22;30950;53.086;21.576;2023-06-05T13:54:05;34.20;31.70
45207;DHT22;30950;53.086;21.576;2023-06-05T13:56:32;34.20;31.10
45207;DHT22;30950;53.086;21.576;2023-06-05T13:59:00;34.10;31.30
45207;DHT22;30950;53.086;21.576;2023-06-05T14:01:27;34.10;31.10
45207;DHT22;30950;53.086;21.576;2023-06-05T14:03:54;34.10;31.10
45207;DHT22;30950;53.086;21.576;2023-06-05T14:06:22;34.10;31.10
45207;DHT22;30950;53.086;21.576;2023-06-05T14:08:50;34.20;31.40
45207;DHT22;30950;53.086;21.576;2023-06-05T14:11:17;34.30;31.00
45207;DHT22;30950;53.086;21.576;2023-06-05T14:13:44;34.40;31.10
45207;DHT22;30950;53.086;21.576;2023-06-05T14:16:11;34.60;31.20
45207;DHT22;30950;53.086;21.576;2023-06-05T14:18:40;34.70;30.60
45207;DHT22;30950;53.086;21.576;2023-06-05T14:21:07;34.60;30.20
45207;DHT22;30950;53.086;21.576;2023-06-05T14:23:34;34.60;30.60
45207;DHT22;30950;53.086;21.576;2023-06-05T14:26:02;34.50;30.30
45207;DHT22;30950;53.086;21.576;2023-06-05T14:28:30;34.30;30.10
45207;DHT22;30950;53.086;21.576;2023-06-05T14:30:57;33.80;30.10
45207;DHT22;30950;53.086;21.576;2023-06-05T14:33:24;33.60;30.50
45207;DHT22;30950;53.086;21.576;2023-06-05T14:35:52;33.70;30.80
45207;DHT22;30950;53.086;21.576;2023-06-05T14:38:19;33.80;30.70
45207;DHT22;30950;53.086;21.576;2023-06-05T14:40:46;33.80;30.60
45207;DHT22;30950;53.086;21.576;2023-06-05T14:43:18;33.60;30.30
45207;DHT22;30950;53.086;21.576;2023-06-05T14:45:45;33.50;30.30
45207;DHT22;30950;53.086;21.576;2023-06-05T14:48:13;33.10;30.40
45207;DHT22;30950;53.086;21.576;2023-06-05T14:50:40;32.50;30.30
45207;DHT22;30950;53.086;21.576;2023-06-05T14:53:08;31.90;30.80
45207;DHT22;30950;53.086;21.576;2023-06-05T14:55:35;31.60;31.50
45207;DHT22;30950;53.086;21.576;2023-06-05T14:58:03;31.40;31.60
45207;DHT22;30950;53.086;21.576;2023-06-05T15:00:32;31.10;31.50
45207;DHT22;30950;53.086;21.576;2023-06-05T15:02:59;30.60;31.60
45207;DHT22;30950;53.086;21.576;2023-06-05T15:05:27;29.80;32.30
45207;DHT22;30950;53.086;21.576;2023-06-05T15:07:55;29.20;32.10
45207;DHT22;30950;53.086;21.576;2023-06-05T15:10:22;28.70;32.40
45207;DHT22;30950;53.086;21.576;2023-06-05T15:12:49;28.20;32.80
45207;DHT22;30950;53.086;21.576;2023-06-05T15:15:26;27.80;33.40
45207;DHT22;30950;53.086;21.576;2023-06-05T15:17:53;27.50;33.70
45207;DHT22;30950;53.086;21.576;2023-06-05T15:20:21;27.20;33.90
45207;DHT22;30950;53.086;21.576;2023-06-05T15:22:53;27.10;34.50
45207;DHT22;30950;53.086;21.576;2023-06-05T15:25:40;26.90;34.90
45207;DHT22;30950;53.086;21.576;2023-06-05T15:28:08;26.90;35.10
45207;DHT22;30950;53.086;21.576;2023-06-05T15:30:35;27.00;35.70
45207;DHT22;30950;53.086;21.576;2023-06-05T15:33:02;27.40;36.10
45207;DHT22;30950;53.086;21.576;2023-06-05T15:35:30;28.00;35.70
45207;DHT22;30950;53.086;21.576;2023-06-05T15:37:57;28.50;35.20
45207;DHT22;30950;53.086;21.576;2023-06-05T15:40:25;29.10;34.60
45207;DHT22;30950;53.086;21.576;2023-06-05T15:43:09;29.40;34.20
45207;DHT22;30950;53.086;21.576;2023-06-05T15:45:38;29.80;34.00
45207;DHT22;30950;53.086;21.576;2023-06-05T15:48:06;30.30;34.20
45207;DHT22;30950;53.086;21.576;2023-06-05T15:50:35;30.60;33.50
45207;DHT22;30950;53.086;21.576;2023-06-05T15:53:03;30.90;33.50
45207;DHT22;30950;53.086;21.576;2023-06-05T15:55:30;31.20;33.40
45207;DHT22;30950;53.086;21.576;2023-06-05T15:57:57;31.50;33.50
45207;DHT22;30950;53.086;21.576;2023-06-05T16:00:25;31.80;33.10
45207;DHT22;30950;53.086;21.576;2023-06-05T16:02:54;32.00;32.70
45207;DHT22;30950;53.086;21.576;2023-06-05T16:05:22;32.30;32.50
45207;DHT22;30950;53.086;21.576;2023-06-05T16:07:50;32.50;32.50
45207;DHT22;30950;53.086;21.576;2023-06-05T16:10:18;32.70;32.20